sensor_id;sensor_type;location;lat;lon;timestamp;pressure;altitude;pressure_sealevel;temperature;humidity
79075;BME280;68476;42.710;23.388;2024-01-27T00:01:38;96106.63;;;-0.36;92.79
79075;BME280;68476;42.710;23.388;2024-01-27T00:04:04;96109.50;;;-0.48;94.50
79075;BME280;68476;42.710;23.388;2024-01-27T00:06:29;96108.09;;;-0.52;95.29
79075;BME280;68476;42.710;23.388;2024-01-27T00:08:55;96115.16;;;-0.60;97.21
79075;BME280;68476;42.710;23.388;2024-01-27T00:11:20;96110.16;;;-0.73;98.65
79075;BME280;68476;42.710;23.388;2024-01-27T00:13:46;96113.22;;;-0.68;99.57
79075;BME280;68476;42.710;23.388;2024-01-27T00:16:12;96109.44;;;-0.66;100.00
79075;BME280;68476;42.710;23.388;2024-01-27T00:18:38;96101.13;;;-0.72;100.00
79075;BME280;68476;42.710;23.388;2024-01-27T00:21:05;96096.44;;;-0.70;100.00
79075;BME280;68476;42.710;23.388;2024-01-27T00:23:30;96099.84;;;-0.68;100.00
79075;BME280;68476;42.710;23.388;2024-01-27T00:25:57;96095.78;;;-0.72;100.00
79075;BME280;68476;42.710;23.388;2024-01-27T00:28:23;96102.81;;;-0.71;100.00
79075;BME280;68476;42.710;23.388;2024-01-27T00:30:48;96100.56;;;-0.76;100.00
79075;BME280;68476;42.710;23.388;2024-01-27T00:33:14;96100.59;;;-0.86;100.00
79075;BME280;68476;42.710;23.388;2024-01-27T00:35:39;96101.44;;;-0.85;100.00
79075;BME280;68476;42.710;23.388;2024-01-27T00:38:05;96103.13;;;-0.84;100.00
79075;BME280;68476;42.710;23.388;2024-01-27T00:40:30;96105.09;;;-0.86;100.00
79075;BME280;68476;42.710;23.388;2024-01-27T00:42:56;96088.94;;;-0.95;100.00
79075;BME280;68476;42.710;23.388;2024-01-27T00:45:21;96089.91;;;-0.86;100.00
79075;BME280;68476;42.710;23.388;2024-01-27T00:47:50;96089.31;;;-0.80;100.00
79075;BME280;68476;42.710;23.388;2024-01-27T00:50:16;96089.03;;;-0.86;100.00
79075;BME280;68476;42.710;23.388;2024-01-27T00:52:41;96089.19;;;-0.88;100.00
79075;BME280;68476;42.710;23.388;2024-01-27T00:55:07;96096.78;;;-0.93;100.00
79075;BME280;68476;42.710;23.388;2024-01-27T00:57:36;96083.50;;;-0.75;100.00
79075;BME280;68476;42.710;23.388;2024-01-27T01:00:04;96084.25;;;-0.83;100.00
79075;BME280;68476;42.710;23.388;2024-01-27T01:02:32;96081.31;;;-0.89;100.00
79075;BME280;68476;42.710;23.388;2024-01-27T01:04:57;96081.72;;;-0.84;100.00
79075;BME280;68476;42.710;23.388;2024-01-27T01:07:22;96082.59;;;-0.94;100.00
79075;BME280;68476;42.710;23.388;2024-01-27T01:09:48;96086.69;;;-0.99;100.00
79075;BME280;68476;42.710;23.388;2024-01-27T01:12:13;96084.56;;;-1.05;100.00
79075;BME280;68476;42.710;23.388;2024-01-27T01:14:40;96098.25;;;-1.09;100.00
79075;BME280;68476;42.710;23.388;2024-01-27T01:17:06;96093.88;;;-1.10;100.00
79075;BME280;68476;42.710;23.388;2024-01-27T01:19:31;96098.81;;;-1.15;100.00
79075;BME280;68476;42.710;23.388;2024-01-27T01:21:56;96103.22;;;-1.23;100.00
79075;BME280;68476;42.710;23.388;2024-01-27T01:24:22;96094.59;;;-1.27;100.00
79075;BME280;68476;42.710;23.388;2024-01-27T01:26:47;96091.97;;;-1.37;100.00
79075;BME280;68476;42.710;23.388;2024-01-27T01:29:13;96087.44;;;-1.46;100.00
79075;BME280;68476;42.710;23.388;2024-01-27T01:31:41;96094.91;;;-1.50;100.00
79075;BME280;68476;42.710;23.388;2024-01-27T01:34:07;96094.19;;;-1.52;100.00
79075;BME280;68476;42.710;23.388;2024-01-27T01:36:33;96094.19;;;-1.32;100.00
79075;BME280;68476;42.710;23.388;2024-01-27T01:38:58;96084.63;;;-1.25;100.00
79075;BME280;68476;42.710;23.388;2024-01-27T01:41:24;96082.59;;;-1.03;100.00
79075;BME280;68476;42.710;23.388;2024-01-27T01:43:49;96082.75;;;-1.15;100.00
79075;BME280;68476;42.710;23.388;2024-01-27T01:46:15;96080.41;;;-1.18;100.00
79075;BME280;68476;42.710;23.388;2024-01-27T01:48:41;96077.13;;;-1.21;100.00
79075;BME280;68476;42.710;23.388;2024-01-27T01:51:06;96069.28;;;-1.23;100.00
79075;BME280;68476;42.710;23.388;2024-01-27T01:53:32;96071.78;;;-1.12;100.00
79075;BME280;68476;42.710;23.388;2024-01-27T01:55:58;96063.88;;;-1.03;100.00
79075;BME280;68476;42.710;23.388;2024-01-27T01:58:23;96069.66;;;-0.98;100.00
79075;BME280;68476;42.710;23.388;2024-01-27T02:00:49;96067.09;;;-1.00;100.00
79075;BME280;68476;42.710;23.388;2024-01-27T02:03:14;96067.53;;;-1.04;100.00
79075;BME280;68476;42.710;23.388;2024-01-27T02:05:40;96060.91;;;-1.00;100.00
79075;BME280;68476;42.710;23.388;2024-01-27T02:08:06;96052.72;;;-0.99;100.00
79075;BME280;68476;42.710;23.388;2024-01-27T02:10:32;96036.69;;;-0.99;100.00
79075;BME280;68476;42.710;23.388;2024-01-27T02:13:19;96039.75;;;-0.84;100.00
79075;BME280;68476;42.710;23.388;2024-01-27T02:15:45;96027.63;;;-0.78;100.00
79075;BME280;68476;42.710;23.388;2024-01-27T02:18:11;96024.19;;;-0.70;100.00
79075;BME280;68476;42.710;23.388;2024-01-27T02:20:37;96039.16;;;-0.78;100.00
79075;BME280;68476;42.710;23.388;2024-01-27T02:23:04;96044.50;;;-0.78;100.00
79075;BME280;68476;42.710;23.388;2024-01-27T02:25:33;96039.16;;;-0.78;100.00
79075;BME280;68476;42.710;23.388;2024-01-27T02:28:00;96045.66;;;-0.80;100.00
79075;BME280;68476;42.710;23.388;2024-01-27T02:30:25;96042.69;;;-0.77;100.00
79075;BME280;68476;42.710;23.388;2024-01-27T02:32:52;96028.34;;;-0.86;100.00
79075;BME280;68476;42.710;23.388;2024-01-27T02:35:17;96032.16;;;-0.88;100.00
79075;BME280;68476;42.710;23.388;2024-01-27T02:37:43;96044.25;;;-0.84;100.00
79075;BME280;68476;42.710;23.388;2024-01-27T02:40:09;96040.59;;;-0.83;100.00
79075;BME280;68476;42.710;23.388;2024-01-27T02:42:35;96044.50;;;-0.78;100.00
79075;BME280;68476;42.710;23.388;2024-01-27T02:45:01;96036.03;;;-0.73;100.00
79075;BME280;68476;42.710;23.388;2024-01-27T02:47:27;96032.38;;;-0.72;100.00
79075;BME280;68476;42.710;23.388;2024-01-27T02:49:53;96027.69;;;-0.60;100.00
79075;BME280;68476;42.710;23.388;2024-01-27T02:52:18;96031.00;;;-0.48;100.00
79075;BME280;68476;42.710;23.388;2024-01-27T02:54:44;96024.25;;;-0.24;100.00
79075;BME280;68476;42.710;23.388;2024-01-27T02:57:09;96025.25;;;-0.07;100.00
79075;BME280;68476;42.710;23.388;2024-01-27T02:59:35;96029.25;;;0.07;100.00
79075;BME280;68476;42.710;23.388;2024-01-27T03:02:00;96030.47;;;0.12;100.00
79075;BME280;68476;42.710;23.388;2024-01-27T03:04:26;96037.63;;;0.22;100.00
79075;BME280;68476;42.710;23.388;2024-01-27T03:06:51;96041.34;;;0.29;100.00
79075;BME280;68476;42.710;23.388;2024-01-27T03:09:17;96039.13;;;0.42;100.00
79075;BME280;68476;42.710;23.388;2024-01-27T03:11:43;96046.78;;;0.55;100.00
79075;BME280;68476;42.710;23.388;2024-01-27T03:14:08;96042.88;;;0.50;100.00
79075;BME280;68476;42.710;23.388;2024-01-27T03:16:35;96039.19;;;0.51;100.00
79075;BME280;68476;42.710;23.388;2024-01-27T03:19:01;96036.06;;;0.55;100.00
79075;BME280;68476;42.710;23.388;2024-01-27T03:21:27;96039.66;;;0.64;100.00
79075;BME280;68476;42.710;23.388;2024-01-27T03:23:52;96029.59;;;0.66;100.00
79075;BME280;68476;42.710;23.388;2024-01-27T03:26:18;96038.09;;;0.80;100.00
79075;BME280;68476;42.710;23.388;2024-01-27T03:28:43;96032.47;;;0.91;100.00
79075;BME280;68476;42.710;23.388;2024-01-27T03:31:09;96039.88;;;0.97;100.00
79075;BME280;68476;42.710;23.388;2024-01-27T03:33:34;96028.34;;;1.31;100.00
79075;BME280;68476;42.710;23.388;2024-01-27T03:35:59;96027.13;;;1.52;100.00
79075;BME280;68476;42.710;23.388;2024-01-27T03:38:26;96027.34;;;1.75;100.00
79075;BME280;68476;42.710;23.388;2024-01-27T03:40:51;96025.06;;;1.89;100.00
79075;BME280;68476;42.710;23.388;2024-01-27T03:43:17;96019.88;;;1.95;100.00
79075;BME280;68476;42.710;23.388;2024-01-27T03:45:42;96013.31;;;2.06;100.00
79075;BME280;68476;42.710;23.388;2024-01-27T03:48:08;96010.84;;;2.21;100.00
79075;BME280;68476;42.710;23.388;2024-01-27T03:50:33;96015.38;;;2.21;100.00
79075;BME280;68476;42.710;23.388;2024-01-27T03:52:59;96006.13;;;2.15;100.00
79075;BME280;68476;42.710;23.388;2024-01-27T03:55:24;96008.66;;;2.17;100.00
79075;BME280;68476;42.710;23.388;2024-01-27T03:57:50;96010.00;;;2.12;100.00
79075;BME280;68476;42.710;23.388;2024-01-27T04:00:15;96009.31;;;2.10;100.00
79075;BME280;68476;42.710;23.388;2024-01-27T04:02:41;96015.69;;;2.18;100.00
79075;BME280;68476;42.710;23.388;2024-01-27T04:05:06;96009.13;;;2.12;100.00
79075;BME280;68476;42.710;23.388;2024-01-27T04:07:32;96022.94;;;2.09;100.00
79075;BME280;68476;42.710;23.388;2024-01-27T04:09:57;96019.25;;;2.10;100.00
79075;BME280;68476;42.710;23.388;2024-01-27T04:12:23;96010.97;;;2.03;100.00
79075;BME280;68476;42.710;23.388;2024-01-27T04:14:48;96016.19;;;2.05;100.00
79075;BME280;68476;42.710;23.388;2024-01-27T04:17:14;96013.84;;;2.10;100.00
79075;BME280;68476;42.710;23.388;2024-01-27T04:19:39;96001.56;;;1.99;100.00
79075;BME280;68476;42.710;23.388;2024-01-27T04:22:05;95997.34;;;1.96;100.00
79075;BME280;68476;42.710;23.388;2024-01-27T04:24:30;96002.19;;;1.84;100.00
79075;BME280;68476;42.710;23.388;2024-01-27T04:26:56;96017.13;;;1.79;100.00
79075;BME280;68476;42.710;23.388;2024-01-27T04:29:21;96008.94;;;1.46;100.00
79075;BME280;68476;42.710;23.388;2024-01-27T04:31:47;96008.31;;;1.17;100.00
79075;BME280;68476;42.710;23.388;2024-01-27T04:34:12;96009.47;;;1.15;100.00
79075;BME280;68476;42.710;23.388;2024-01-27T04:36:37;96011.56;;;1.03;100.00
79075;BME280;68476;42.710;23.388;2024-01-27T04:39:03;96016.94;;;1.03;100.00
79075;BME280;68476;42.710;23.388;2024-01-27T04:41:29;96013.38;;;0.94;100.00
79075;BME280;68476;42.710;23.388;2024-01-27T04:43:55;96018.19;;;0.90;100.00
79075;BME280;68476;42.710;23.388;2024-01-27T04:46:22;96014.81;;;0.88;100.00
79075;BME280;68476;42.710;23.388;2024-01-27T04:48:48;96016.94;;;0.76;100.00
79075;BME280;68476;42.710;23.388;2024-01-27T04:51:13;96016.88;;;0.68;100.00
79075;BME280;68476;42.710;23.388;2024-01-27T04:53:39;96009.22;;;0.55;100.00
79075;BME280;68476;42.710;23.388;2024-01-27T04:56:05;96022.09;;;0.70;100.00
79075;BME280;68476;42.710;23.388;2024-01-27T04:58:34;96025.94;;;0.67;100.00
79075;BME280;68476;42.710;23.388;2024-01-27T05:01:00;96025.97;;;0.49;100.00
79075;BME280;68476;42.710;23.388;2024-01-27T05:03:25;96023.84;;;0.61;100.00
79075;BME280;68476;42.710;23.388;2024-01-27T05:05:51;96035.81;;;0.67;100.00
79075;BME280;68476;42.710;23.388;2024-01-27T05:08:16;96029.38;;;0.59;100.00
79075;BME280;68476;42.710;23.388;2024-01-27T05:10:41;96026.25;;;0.64;100.00
79075;BME280;68476;42.710;23.388;2024-01-27T05:13:07;96037.03;;;0.72;100.00
79075;BME280;68476;42.710;23.388;2024-01-27T05:15:32;96039.03;;;0.70;100.00
79075;BME280;68476;42.710;23.388;2024-01-27T05:17:58;96035.16;;;0.65;100.00
79075;BME280;68476;42.710;23.388;2024-01-27T05:20:23;96036.28;;;0.62;100.00
79075;BME280;68476;42.710;23.388;2024-01-27T05:22:49;96037.44;;;0.59;100.00
79075;BME280;68476;42.710;23.388;2024-01-27T05:25:14;96034.59;;;0.61;100.00
79075;BME280;68476;42.710;23.388;2024-01-27T05:27:42;96036.91;;;0.56;100.00
79075;BME280;68476;42.710;23.388;2024-01-27T05:30:08;96036.50;;;0.51;100.00
79075;BME280;68476;42.710;23.388;2024-01-27T05:32:34;96038.16;;;0.43;100.00
79075;BME280;68476;42.710;23.388;2024-01-27T05:34:59;96037.50;;;0.50;100.00
79075;BME280;68476;42.710;23.388;2024-01-27T05:37:25;96037.84;;;0.47;100.00
79075;BME280;68476;42.710;23.388;2024-01-27T05:39:50;96040.81;;;0.43;100.00
79075;BME280;68476;42.710;23.388;2024-01-27T05:42:15;96042.19;;;0.48;100.00
79075;BME280;68476;42.710;23.388;2024-01-27T05:44:41;96044.09;;;0.37;100.00
79075;BME280;68476;42.710;23.388;2024-01-27T05:47:07;96047.47;;;0.39;100.00
79075;BME280;68476;42.710;23.388;2024-01-27T05:49:33;96053.84;;;0.38;100.00
79075;BME280;68476;42.710;23.388;2024-01-27T05:51:58;96055.59;;;0.29;100.00
79075;BME280;68476;42.710;23.388;2024-01-27T05:54:24;96049.25;;;0.30;100.00
79075;BME280;68476;42.710;23.388;2024-01-27T05:56:50;96054.75;;;0.29;100.00
79075;BME280;68476;42.710;23.388;2024-01-27T05:59:15;96056.44;;;0.30;100.00
79075;BME280;68476;42.710;23.388;2024-01-27T06:01:41;96051.56;;;0.25;100.00
79075;BME280;68476;42.710;23.388;2024-01-27T06:04:08;96055.22;;;0.24;100.00
79075;BME280;68476;42.710;23.388;2024-01-27T06:06:34;96062.97;;;0.27;100.00
79075;BME280;68476;42.710;23.388;2024-01-27T06:08:59;96064.78;;;0.27;100.00
79075;BME280;68476;42.710;23.388;2024-01-27T06:11:25;96065.09;;;0.24;100.00
79075;BME280;68476;42.710;23.388;2024-01-27T06:13:51;96066.19;;;0.31;100.00
79075;BME280;68476;42.710;23.388;2024-01-27T06:16:19;96062.03;;;0.19;100.00
79075;BME280;68476;42.710;23.388;2024-01-27T06:18:45;96074.97;;;0.23;100.00
79075;BME280;68476;42.710;23.388;2024-01-27T06:21:11;96077.22;;;0.28;100.00
79075;BME280;68476;42.710;23.388;2024-01-27T06:23:37;96082.03;;;0.24;100.00
79075;BME280;68476;42.710;23.388;2024-01-27T06:26:06;96078.88;;;0.29;100.00
79075;BME280;68476;42.710;23.388;2024-01-27T06:28:32;96090.31;;;0.31;100.00
79075;BME280;68476;42.710;23.388;2024-01-27T06:30:57;96079.94;;;0.36;100.00
79075;BME280;68476;42.710;23.388;2024-01-27T06:33:23;96084.03;;;0.40;100.00
79075;BME280;68476;42.710;23.388;2024-01-27T06:35:48;96090.25;;;0.41;100.00
79075;BME280;68476;42.710;23.388;2024-01-27T06:38:14;96097.13;;;0.43;100.00
79075;BME280;68476;42.710;23.388;2024-01-27T06:40:39;96103.78;;;0.39;100.00
79075;BME280;68476;42.710;23.388;2024-01-27T06:43:05;96115.50;;;0.38;100.00
79075;BME280;68476;42.710;23.388;2024-01-27T06:45:30;96120.03;;;0.38;100.00
79075;BME280;68476;42.710;23.388;2024-01-27T06:47:56;96117.50;;;0.36;100.00
79075;BME280;68476;42.710;23.388;2024-01-27T06:50:21;96108.56;;;0.45;100.00
79075;BME280;68476;42.710;23.388;2024-01-27T06:52:48;96114.53;;;0.57;100.00
79075;BME280;68476;42.710;23.388;2024-01-27T06:55:13;96110.44;;;0.71;100.00
79075;BME280;68476;42.710;23.388;2024-01-27T06:57:39;96105.41;;;0.86;100.00
79075;BME280;68476;42.710;23.388;2024-01-27T07:00:06;96100.00;;;1.04;100.00
79075;BME280;68476;42.710;23.388;2024-01-27T07:02:32;96093.06;;;1.20;100.00
79075;BME280;68476;42.710;23.388;2024-01-27T07:04:58;96086.31;;;1.42;100.00
79075;BME280;68476;42.710;23.388;2024-01-27T07:07:28;96074.91;;;1.75;100.00
79075;BME280;68476;42.710;23.388;2024-01-27T07:09:56;96064.19;;;1.91;100.00
79075;BME280;68476;42.710;23.388;2024-01-27T07:12:22;96052.50;;;2.17;100.00
79075;BME280;68476;42.710;23.388;2024-01-27T07:14:47;96051.88;;;2.31;100.00
79075;BME280;68476;42.710;23.388;2024-01-27T07:17:13;96071.41;;;2.42;100.00
79075;BME280;68476;42.710;23.388;2024-01-27T07:19:39;96079.50;;;2.58;100.00
79075;BME280;68476;42.710;23.388;2024-01-27T07:22:04;96086.72;;;2.58;100.00
79075;BME280;68476;42.710;23.388;2024-01-27T07:24:30;96099.00;;;2.77;100.00
79075;BME280;68476;42.710;23.388;2024-01-27T07:26:55;96107.94;;;2.94;100.00
79075;BME280;68476;42.710;23.388;2024-01-27T07:29:21;96113.81;;;2.98;100.00
79075;BME280;68476;42.710;23.388;2024-01-27T07:31:47;96116.19;;;3.09;100.00
79075;BME280;68476;42.710;23.388;2024-01-27T07:34:13;96135.22;;;3.07;100.00
79075;BME280;68476;42.710;23.388;2024-01-27T07:36:38;96133.34;;;3.00;100.00
79075;BME280;68476;42.710;23.388;2024-01-27T07:39:04;96128.78;;;3.00;100.00
79075;BME280;68476;42.710;23.388;2024-01-27T07:41:33;96138.72;;;3.08;100.00
79075;BME280;68476;42.710;23.388;2024-01-27T07:44:07;96139.41;;;3.18;100.00
79075;BME280;68476;42.710;23.388;2024-01-27T07:46:33;96136.88;;;3.25;100.00
79075;BME280;68476;42.710;23.388;2024-01-27T07:48:58;96132.03;;;3.29;100.00
79075;BME280;68476;42.710;23.388;2024-01-27T07:51:24;96151.53;;;3.39;100.00
79075;BME280;68476;42.710;23.388;2024-01-27T07:53:49;96126.44;;;3.30;100.00
79075;BME280;68476;42.710;23.388;2024-01-27T07:56:15;96153.41;;;3.22;100.00
79075;BME280;68476;42.710;23.388;2024-01-27T07:58:40;96166.69;;;3.15;100.00
79075;BME280;68476;42.710;23.388;2024-01-27T08:01:06;96164.50;;;3.11;100.00
79075;BME280;68476;42.710;23.388;2024-01-27T08:03:31;96162.16;;;3.07;100.00
79075;BME280;68476;42.710;23.388;2024-01-27T08:05:57;96146.81;;;3.08;100.00
79075;BME280;68476;42.710;23.388;2024-01-27T08:08:22;96175.28;;;3.11;100.00
79075;BME280;68476;42.710;23.388;2024-01-27T08:10:48;96181.13;;;3.06;100.00
79075;BME280;68476;42.710;23.388;2024-01-27T08:13:13;96162.66;;;3.03;100.00
79075;BME280;68476;42.710;23.388;2024-01-27T08:15:38;96165.66;;;3.00;100.00
79075;BME280;68476;42.710;23.388;2024-01-27T08:18:04;96170.72;;;3.11;100.00
79075;BME280;68476;42.710;23.388;2024-01-27T08:20:30;96144.13;;;3.24;100.00
79075;BME280;68476;42.710;23.388;2024-01-27T08:22:55;96153.22;;;3.32;100.00
79075;BME280;68476;42.710;23.388;2024-01-27T08:25:21;96172.72;;;3.59;100.00
79075;BME280;68476;42.710;23.388;2024-01-27T08:27:46;96134.16;;;3.58;100.00
79075;BME280;68476;42.710;23.388;2024-01-27T08:30:12;96118.66;;;3.68;100.00
79075;BME280;68476;42.710;23.388;2024-01-27T08:32:38;96123.19;;;3.76;100.00
79075;BME280;68476;42.710;23.388;2024-01-27T08:35:03;96131.72;;;3.88;100.00
79075;BME280;68476;42.710;23.388;2024-01-27T08:37:29;96116.31;;;4.05;100.00
79075;BME280;68476;42.710;23.388;2024-01-27T08:39:55;96122.88;;;4.11;100.00
79075;BME280;68476;42.710;23.388;2024-01-27T08:42:20;96085.03;;;3.96;100.00
79075;BME280;68476;42.710;23.388;2024-01-27T08:44:46;96118.06;;;3.90;100.00
79075;BME280;68476;42.710;23.388;2024-01-27T08:47:11;96102.84;;;4.05;100.00
79075;BME280;68476;42.710;23.388;2024-01-27T08:49:37;96112.56;;;4.23;100.00
79075;BME280;68476;42.710;23.388;2024-01-27T08:52:03;96075.63;;;3.83;100.00
79075;BME280;68476;42.710;23.388;2024-01-27T08:54:28;96087.03;;;3.94;100.00
79075;BME280;68476;42.710;23.388;2024-01-27T08:56:54;96119.44;;;3.85;100.00
79075;BME280;68476;42.710;23.388;2024-01-27T08:59:20;96141.31;;;3.91;100.00
79075;BME280;68476;42.710;23.388;2024-01-27T09:01:45;96102.06;;;3.88;100.00
79075;BME280;68476;42.710;23.388;2024-01-27T09:04:11;96078.28;;;3.92;100.00
79075;BME280;68476;42.710;23.388;2024-01-27T09:06:36;96082.63;;;4.01;100.00
79075;BME280;68476;42.710;23.388;2024-01-27T09:09:01;96100.34;;;3.95;100.00
79075;BME280;68476;42.710;23.388;2024-01-27T09:11:28;96123.75;;;4.03;100.00
79075;BME280;68476;42.710;23.388;2024-01-27T09:13:55;96122.84;;;4.19;100.00
79075;BME280;68476;42.710;23.388;2024-01-27T09:16:21;96092.06;;;4.37;100.00
79075;BME280;68476;42.710;23.388;2024-01-27T09:18:46;96094.09;;;4.35;100.00
79075;BME280;68476;42.710;23.388;2024-01-27T09:21:12;96099.19;;;4.84;100.00
79075;BME280;68476;42.710;23.388;2024-01-27T09:23:39;96122.16;;;4.57;100.00
79075;BME280;68476;42.710;23.388;2024-01-27T09:26:05;96091.28;;;6.71;100.00
79075;BME280;68476;42.710;23.388;2024-01-27T09:28:30;96117.53;;;6.70;100.00
79075;BME280;68476;42.710;23.388;2024-01-27T09:30:56;96096.81;;;6.26;100.00
79075;BME280;68476;42.710;23.388;2024-01-27T09:33:21;96101.47;;;6.17;100.00
79075;BME280;68476;42.710;23.388;2024-01-27T09:35:49;96120.53;;;6.60;100.00
79075;BME280;68476;42.710;23.388;2024-01-27T09:38:14;96136.03;;;6.67;100.00
79075;BME280;68476;42.710;23.388;2024-01-27T09:40:40;96118.72;;;6.83;98.21
79075;BME280;68476;42.710;23.388;2024-01-27T09:43:06;96128.28;;;4.97;100.00
79075;BME280;68476;42.710;23.388;2024-01-27T09:45:34;96143.38;;;4.60;97.79
79075;BME280;68476;42.710;23.388;2024-01-27T09:48:01;96137.41;;;4.41;97.40
79075;BME280;68476;42.710;23.388;2024-01-27T09:50:28;96158.34;;;4.39;96.36
79075;BME280;68476;42.710;23.388;2024-01-27T09:52:53;96155.06;;;4.21;97.44
79075;BME280;68476;42.710;23.388;2024-01-27T09:55:19;96170.47;;;3.95;98.46
79075;BME280;68476;42.710;23.388;2024-01-27T09:57:45;96167.94;;;3.94;97.56
79075;BME280;68476;42.710;23.388;2024-01-27T10:00:11;96149.09;;;3.85;96.93
79075;BME280;68476;42.710;23.388;2024-01-27T10:02:41;96166.81;;;3.80;96.09
79075;BME280;68476;42.710;23.388;2024-01-27T10:05:08;96177.94;;;3.77;94.67
79075;BME280;68476;42.710;23.388;2024-01-27T10:07:34;96151.50;;;3.72;95.57
79075;BME280;68476;42.710;23.388;2024-01-27T10:09:59;96185.19;;;3.68;93.84
79075;BME280;68476;42.710;23.388;2024-01-27T10:12:26;96168.50;;;3.73;94.33
79075;BME280;68476;42.710;23.388;2024-01-27T10:14:53;96180.81;;;3.75;94.66
79075;BME280;68476;42.710;23.388;2024-01-27T10:17:23;96160.75;;;3.78;94.36
79075;BME280;68476;42.710;23.388;2024-01-27T10:20:03;96167.00;;;3.70;93.43
79075;BME280;68476;42.710;23.388;2024-01-27T10:22:39;96174.38;;;3.84;92.92
79075;BME280;68476;42.710;23.388;2024-01-27T10:25:06;96183.16;;;3.70;93.25
79075;BME280;68476;42.710;23.388;2024-01-27T10:27:33;96183.00;;;3.63;93.87
79075;BME280;68476;42.710;23.388;2024-01-27T10:29:58;96152.34;;;3.48;94.45
79075;BME280;68476;42.710;23.388;2024-01-27T10:32:23;96197.50;;;3.54;94.96
79075;BME280;68476;42.710;23.388;2024-01-27T10:35:00;96175.78;;;3.47;95.38
79075;BME280;68476;42.710;23.388;2024-01-27T10:37:26;96181.50;;;3.44;96.35
79075;BME280;68476;42.710;23.388;2024-01-27T10:40:02;96190.75;;;3.50;95.62
79075;BME280;68476;42.710;23.388;2024-01-27T10:42:28;96189.75;;;3.51;96.27
79075;BME280;68476;42.710;23.388;2024-01-27T10:45:00;96205.91;;;3.51;96.18
79075;BME280;68476;42.710;23.388;2024-01-27T10:47:30;96182.84;;;3.57;96.38
79075;BME280;68476;42.710;23.388;2024-01-27T10:50:00;96181.50;;;3.52;96.79
79075;BME280;68476;42.710;23.388;2024-01-27T10:52:31;96145.47;;;3.45;95.97
79075;BME280;68476;42.710;23.388;2024-01-27T10:54:59;96198.19;;;3.56;95.85
79075;BME280;68476;42.710;23.388;2024-01-27T10:57:29;96216.69;;;3.67;93.43
79075;BME280;68476;42.710;23.388;2024-01-27T10:59:56;96189.03;;;3.74;93.03
79075;BME280;68476;42.710;23.388;2024-01-27T11:02:23;96219.06;;;3.54;94.49
79075;BME280;68476;42.710;23.388;2024-01-27T11:04:49;96178.44;;;3.72;93.96
79075;BME280;68476;42.710;23.388;2024-01-27T11:07:19;96204.53;;;3.72;93.91
79075;BME280;68476;42.710;23.388;2024-01-27T11:09:46;96201.53;;;3.66;94.68
79075;BME280;68476;42.710;23.388;2024-01-27T11:12:13;96213.00;;;3.68;94.59
79075;BME280;68476;42.710;23.388;2024-01-27T11:14:38;96182.81;;;3.73;94.77
79075;BME280;68476;42.710;23.388;2024-01-27T11:17:04;96181.13;;;3.80;94.67
79075;BME280;68476;42.710;23.388;2024-01-27T11:19:29;96199.56;;;4.16;92.83
79075;BME280;68476;42.710;23.388;2024-01-27T11:22:02;96181.97;;;3.73;92.88
79075;BME280;68476;42.710;23.388;2024-01-27T11:24:28;96213.13;;;3.83;94.23
79075;BME280;68476;42.710;23.388;2024-01-27T11:27:06;96214.34;;;3.56;95.75
79075;BME280;68476;42.710;23.388;2024-01-27T11:29:32;96205.56;;;3.37;95.83
79075;BME280;68476;42.710;23.388;2024-01-27T11:32:02;96217.53;;;3.43;98.21
79075;BME280;68476;42.710;23.388;2024-01-27T11:34:40;96224.63;;;3.36;97.96
79075;BME280;68476;42.710;23.388;2024-01-27T11:37:15;96212.97;;;3.27;98.19
79075;BME280;68476;42.710;23.388;2024-01-27T11:39:41;96231.69;;;3.29;99.44
79075;BME280;68476;42.710;23.388;2024-01-27T11:42:11;96245.81;;;3.22;98.91
79075;BME280;68476;42.710;23.388;2024-01-27T11:44:41;96230.66;;;3.21;98.41
79075;BME280;68476;42.710;23.388;2024-01-27T11:47:19;96237.41;;;3.26;98.40
79075;BME280;68476;42.710;23.388;2024-01-27T11:49:53;96244.63;;;3.25;97.73
79075;BME280;68476;42.710;23.388;2024-01-27T11:52:19;96217.53;;;3.27;97.56
79075;BME280;68476;42.710;23.388;2024-01-27T11:54:45;96244.81;;;3.32;98.09
79075;BME280;68476;42.710;23.388;2024-01-27T11:57:10;96271.56;;;3.25;95.85
79075;BME280;68476;42.710;23.388;2024-01-27T11:59:36;96250.03;;;3.25;96.18
79075;BME280;68476;42.710;23.388;2024-01-27T12:02:02;96228.66;;;3.23;94.94
79075;BME280;68476;42.710;23.388;2024-01-27T12:04:28;96247.19;;;3.27;94.50
79075;BME280;68476;42.710;23.388;2024-01-27T12:06:54;96264.34;;;3.26;92.45
79075;BME280;68476;42.710;23.388;2024-01-27T12:09:19;96238.09;;;3.28;92.09
79075;BME280;68476;42.710;23.388;2024-01-27T12:11:45;96268.03;;;3.33;91.76
79075;BME280;68476;42.710;23.388;2024-01-27T12:14:11;96263.16;;;3.36;91.46
79075;BME280;68476;42.710;23.388;2024-01-27T12:16:37;96247.16;;;3.43;90.46
79075;BME280;68476;42.710;23.388;2024-01-27T12:19:03;96252.25;;;3.63;88.43
79075;BME280;68476;42.710;23.388;2024-01-27T12:21:28;96242.53;;;4.74;80.77
79075;BME280;68476;42.710;23.388;2024-01-27T12:23:57;96262.44;;;4.82;80.07
79075;BME280;68476;42.710;23.388;2024-01-27T12:26:29;96271.56;;;4.24;83.45
79075;BME280;68476;42.710;23.388;2024-01-27T12:28:55;96240.25;;;7.22;71.02
79075;BME280;68476;42.710;23.388;2024-01-27T12:31:25;96231.28;;;8.72;64.96
79075;BME280;68476;42.710;23.388;2024-01-27T12:33:52;96268.09;;;6.79;66.76
79075;BME280;68476;42.710;23.388;2024-01-27T12:36:19;96235.59;;;5.12;75.32
79075;BME280;68476;42.710;23.388;2024-01-27T12:38:59;96251.06;;;7.01;68.26
79075;BME280;68476;42.710;23.388;2024-01-27T12:41:26;96230.03;;;7.61;64.06
79075;BME280;68476;42.710;23.388;2024-01-27T12:43:52;96248.00;;;5.52;70.78
79075;BME280;68476;42.710;23.388;2024-01-27T12:46:18;96240.78;;;7.76;64.06